Time;durP1;ratioP1;P1;durP2;ratioP2;P2;SDS_P1;SDS_P2;PMS_P1;PMS_P2;Temp;Humidity;BMP_temperature;BMP_pressure;BME280_temperature;BME280_humidity;BME280_pressure;Samples;Min_cycle;Max_cycle;Signal;HPM_P1;HPM_P2
2022/09/22 00:01:30;;;;;;;3.55;1.98;;;;;;;22.53;45.67;101691.63;5011403;28;20053;-75
2022/09/22 00:04:03;;;;;;;2.33;1.67;;;;;;;22.53;45.65;101691.63;5010573;28;20045;-74
2022/09/22 00:06:37;;;;;;;3.40;1.80;;;;;;;22.53;45.66;101688.06;5010413;28;20050;-75
2022/09/22 00:09:08;;;;;;;3.47;2.20;;;;;;;22.53;45.66;101691.63;5011359;28;20053;-75
2022/09/22 00:11:41;;;;;;;4.47;1.77;;;;;;;22.52;45.57;101687.19;5013671;28;20057;-75
2022/09/22 00:14:16;;;;;;;6.40;2.22;;;;;;;22.54;45.89;101692.47;5014726;28;20042;-75
2022/09/22 00:16:48;;;;;;;3.33;1.50;;;;;;;22.53;45.83;101688.91;5014164;28;20053;-75
2022/09/22 00:19:18;;;;;;;2.30;1.70;;;;;;;22.53;45.70;101688.06;5014220;28;20050;-75
2022/09/22 00:21:46;;;;;;;4.32;1.90;;;;;;;22.52;45.69;101691.72;5014734;28;20053;-75
2022/09/22 00:24:15;;;;;;;2.72;1.75;;;;;;;22.53;45.74;101686.22;5014057;28;20046;-75
2022/09/22 00:26:42;;;;;;;2.80;1.77;;;;;;;22.52;45.68;101689.88;5013800;28;20076;-75
2022/09/22 00:29:11;;;;;;;4.22;1.90;;;;;;;22.52;45.64;101686.34;5012044;28;20058;-75
2022/09/22 00:31:40;;;;;;;3.67;2.10;;;;;;;22.51;45.66;101687.34;5013787;28;20401;-75
2022/09/22 00:34:14;;;;;;;3.70;1.70;;;;;;;22.51;45.79;101687.34;5013407;28;20064;-75
2022/09/22 00:36:41;;;;;;;4.00;1.70;;;;;;;22.50;45.81;101691.03;5014121;28;20050;-75
2022/09/22 00:39:09;;;;;;;4.38;1.90;;;;;;;22.50;45.74;101680.22;5013645;28;20401;-75
2022/09/22 00:41:40;;;;;;;2.50;1.75;;;;;;;22.49;45.71;101684.78;5013815;28;20479;-75
2022/09/22 00:44:17;;;;;;;3.45;1.80;;;;;;;22.50;45.83;101682.94;5013742;28;20038;-75
2022/09/22 00:46:52;;;;;;;5.25;2.42;;;;;;;22.50;45.88;101682.94;5013538;28;20054;-75
2022/09/22 00:49:27;;;;;;;3.63;2.38;;;;;;;22.49;45.65;101682.06;5013847;28;20049;-75
2022/09/22 00:51:54;;;;;;;3.80;2.17;;;;;;;22.49;45.76;101679.38;5014215;28;20050;-75
2022/09/22 00:54:22;;;;;;;3.40;1.90;;;;;;;22.50;45.68;101677.53;5014162;28;20042;-75
2022/09/22 00:57:00;;;;;;;3.03;1.90;;;;;;;22.48;45.77;101685.75;5013513;28;20528;-75
2022/09/22 00:59:28;;;;;;;3.67;2.13;;;;;;;22.48;45.71;101677.66;5013996;28;20053;-75
2022/09/22 01:01:55;;;;;;;3.22;1.50;;;;;;;22.49;45.88;101670.44;5012981;28;20050;-75
2022/09/22 01:04:22;;;;;;;2.30;1.80;;;;;;;22.48;45.61;101672.25;5013640;28;20045;-75
2022/09/22 01:06:52;;;;;;;2.70;2.00;;;;;;;22.46;45.91;101669.69;5013331;28;20045;-75
2022/09/22 01:09:19;;;;;;;4.85;2.13;;;;;;;22.47;45.77;101662.44;5013929;28;20496;-75
2022/09/22 01:11:47;;;;;;;2.67;1.65;;;;;;;22.47;45.73;101667.84;5013771;28;20053;-74
2022/09/22 01:14:46;;;;;;;2.60;1.77;;;;;;;22.47;45.98;101667.84;5012840;28;20409;-75
2022/09/22 01:17:37;;;;;;;4.13;1.92;;;;;;;22.47;45.85;101673.25;5034901;28;20073;-75
2022/09/22 01:20:14;;;;;;;3.65;1.77;;;;;;;22.46;45.77;101660.75;5013687;28;20054;-75
2022/09/22 01:22:54;;;;;;;2.28;1.90;;;;;;;22.45;45.90;101665.28;5013214;28;20524;-75
2022/09/22 01:25:50;;;;;;;3.88;1.77;;;;;;;22.46;45.77;101660.75;5012963;28;20053;-75
2022/09/22 01:28:36;;;;;;;5.60;1.83;;;;;;;22.45;45.87;101657.19;5013400;28;20046;-75
2022/09/22 01:31:30;;;;;;;5.40;2.40;;;;;;;22.45;45.88;101657.19;5013323;28;20045;-75
2022/09/22 01:34:12;;;;;;;3.28;1.85;;;;;;;22.45;45.88;101659.91;5012426;28;20050;-75
2022/09/22 01:37:01;;;;;;;2.55;1.90;;;;;;;22.45;45.83;101664.44;5013433;28;20401;-75
2022/09/22 01:39:44;;;;;;;3.58;2.00;;;;;;;22.44;45.90;101652.81;5012577;28;20504;-75
2022/09/22 01:42:16;;;;;;;4.20;2.10;;;;;;;22.44;45.73;101654.63;5013194;28;20049;-75
2022/09/22 01:44:51;;;;;;;3.83;2.20;;;;;;;22.43;45.96;101656.47;5012584;28;20042;-74
2022/09/22 01:47:27;;;;;;;3.47;1.92;;;;;;;22.43;45.85;101651.06;5013341;28;20484;-75
2022/09/22 01:50:03;;;;;;;3.80;2.13;;;;;;;22.44;45.94;101651.91;5012736;28;20058;-75
2022/09/22 01:52:34;;;;;;;2.75;2.05;;;;;;;22.43;45.89;101650.22;5013129;28;20473;-74
2022/09/22 01:55:38;;;;;;;2.42;1.70;;;;;;;22.43;45.93;101659.16;5012618;28;20053;-75
2022/09/22 01:58:11;;;;;;;2.70;1.83;;;;;;;22.43;46.04;101652.91;5033337;28;20088;-75
2022/09/22 02:00:44;;;;;;;2.70;1.88;;;;;;;22.42;45.91;101654.75;5013131;28;20054;-74
2022/09/22 02:03:15;;;;;;;2.88;1.70;;;;;;;22.42;46.03;101654.75;5012793;28;20050;-75
2022/09/22 02:05:48;;;;;;;2.90;1.70;;;;;;;22.41;45.90;101658.44;5011373;28;20050;-73
2022/09/22 02:08:26;;;;;;;;;;;;;;;22.41;45.95;101658.44;5012817;28;20053;-73
2022/09/22 02:10:57;;;;;;;3.00;2.00;;;;;;;22.42;46.12;101680.88;5012215;28;20297;-73
2022/09/22 02:13:25;;;;;;;3.72;2.13;;;;;;;22.41;45.81;101676.47;5012230;28;20401;-73
2022/09/22 02:16:01;;;;;;;4.95;1.80;;;;;;;22.40;45.66;101672.94;5012766;28;20054;-75
2022/09/22 02:18:28;;;;;;;4.70;2.20;;;;;;;22.41;45.84;101673.78;5012616;28;20056;-75
2022/09/22 02:20:57;;;;;;;3.28;1.90;;;;;;;22.41;45.81;101665.69;5011893;28;20397;-75
2022/09/22 02:23:24;;;;;;;3.40;1.90;;;;;;;22.40;45.94;101672.06;5012224;28;20057;-75
2022/09/22 02:25:54;;;;;;;2.33;1.70;;;;;;;22.39;46.13;101664.97;5012265;28;20042;-75
2022/09/22 02:28:23;;;;;;;2.83;1.83;;;;;;;22.40;45.98;101669.34;5011989;28;20052;-75
2022/09/22 02:30:55;;;;;;;2.70;1.80;;;;;;;22.39;45.88;101667.66;5011970;28;20053;-75
2022/09/22 02:33:42;;;;;;;4.53;1.83;;;;;;;22.39;45.98;101659.56;5011217;28;20053;-76
2022/09/22 02:36:34;;;;;;;3.85;1.80;;;;;;;22.39;46.05;101659.56;5011818;28;20045;-76
2022/09/22 02:39:16;;;;;;;4.38;2.28;;;;;;;22.38;45.86;101660.56;5012513;28;20050;-76
2022/09/22 02:41:58;;;;;;;3.58;2.00;;;;;;;22.38;45.81;101657.84;5012117;28;20045;-75
2022/09/22 02:44:51;;;;;;;5.55;1.90;;;;;;;22.38;46.05;101657.84;5010300;28;20508;-75
2022/09/22 02:47:34;;;;;;;3.20;1.98;;;;;;;22.38;46.11;101657.84;5012430;28;20046;-75
2022/09/22 02:50:07;;;;;;;2.88;2.17;;;;;;;22.37;45.95;101651.59;5011239;28;20053;-75
2022/09/22 02:52:35;;;;;;;;;;;;;;;22.37;46.04;101648.06;5012730;28;20053;-76
2022/09/22 02:55:03;;;;;;;4.07;1.80;;;;;;;22.38;45.99;101649.75;5011904;28;19945;-76
2022/09/22 02:57:30;;;;;;;3.35;1.67;;;;;;;22.37;46.07;101645.38;5011488;28;20046;-75
2022/09/22 02:59:58;;;;;;;3.83;1.85;;;;;;;22.36;46.10;101647.22;5011786;28;20049;-76
2022/09/22 03:02:25;;;;;;;2.70;1.95;;;;;;;22.37;45.99;101648.06;5011616;28;20046;-76
2022/09/22 03:04:52;;;;;;;2.92;1.70;;;;;;;22.36;45.89;101646.31;5011810;28;20481;-76
2022/09/22 03:07:20;;;;;;;2.85;1.88;;;;;;;22.35;46.00;101640.06;5012015;28;20045;-76
2022/09/22 03:09:47;;;;;;;2.78;1.63;;;;;;;22.35;45.98;101636.53;5011367;28;20068;-73
2022/09/22 03:12:14;;;;;;;3.92;1.90;;;;;;;22.35;46.12;101636.53;5011365;28;20046;-73
2022/09/22 03:14:42;;;;;;;3.03;2.10;;;;;;;22.35;45.92;101647.31;5011925;28;20045;-73
2022/09/22 03:17:10;;;;;;;3.03;1.95;;;;;;;22.35;46.02;101637.38;5011874;28;20057;-73
2022/09/22 03:19:37;;;;;;;3.05;1.77;;;;;;;22.34;46.01;101646.47;5012212;28;20045;-73
2022/09/22 03:22:04;;;;;;;2.80;1.98;;;;;;;22.34;45.92;101635.69;5011740;28;20049;-73
2022/09/22 03:24:31;;;;;;;2.42;1.92;;;;;;;22.34;46.01;101634.81;5011768;28;20038;-73
2022/09/22 03:26:59;;;;;;;4.07;2.20;;;;;;;22.34;46.07;101640.22;5011520;28;20393;-73
2022/09/22 03:29:26;;;;;;;3.42;2.65;;;;;;;22.34;46.03;101641.06;5011736;28;20516;-73
2022/09/22 03:31:53;;;;;;;3.28;2.05;;;;;;;22.32;46.15;101634.97;5011061;28;20053;-73
2022/09/22 03:34:21;;;;;;;2.58;1.65;;;;;;;22.34;46.04;101642.91;5010981;28;20058;-73
2022/09/22 03:36:48;;;;;;;3.55;2.10;;;;;;;22.34;46.00;101640.22;5009824;28;20050;-73
2022/09/22 03:39:16;;;;;;;3.85;1.98;;;;;;;22.33;46.16;101644.75;5011635;28;20053;-73
2022/09/22 03:41:43;;;;;;;2.97;1.80;;;;;;;22.33;46.05;101644.75;5011712;28;20053;-73
2022/09/22 03:44:10;;;;;;;2.50;1.77;;;;;;;22.32;45.90;101642.19;5010814;28;20045;-73
2022/09/22 03:46:38;;;;;;;3.03;1.80;;;;;;;22.32;45.93;101639.47;5014059;28;20373;-73
2022/09/22 03:49:05;;;;;;;4.93;2.08;;;;;;;22.31;45.98;101637.78;5014562;28;20042;-73
2022/09/22 03:51:33;;;;;;;2.40;1.58;;;;;;;22.32;45.90;101644.88;5014783;28;20385;-73
2022/09/22 03:54:00;;;;;;;2.92;1.50;;;;;;;22.30;45.94;101639.63;5012520;28;20054;-74
2022/09/22 03:56:27;;;;;;;3.20;2.03;;;;;;;22.30;46.06;101644.16;5014843;28;20049;-74
2022/09/22 03:58:55;;;;;;;2.20;1.70;;;;;;;22.30;46.03;101638.78;5014631;28;20046;-73
2022/09/22 04:01:22;;;;;;;2.10;1.77;;;;;;;22.31;46.07;101638.63;5014670;28;20046;-73
2022/09/22 04:03:49;;;;;;;4.50;1.90;;;;;;;22.31;46.07;101635.09;5014270;28;20053;-73
2022/09/22 04:06:16;;;;;;;3.90;1.70;;;;;;;22.28;45.96;101638.03;5014062;28;20057;-73
2022/09/22 04:08:44;;;;;;;2.78;1.85;;;;;;;22.30;45.91;101630.69;5012702;28;20505;-73
2022/09/22 04:11:11;;;;;;;2.85;1.75;;;;;;;22.29;46.13;101637.06;5014308;28;20042;-73
2022/09/22 04:13:39;;;;;;;3.40;1.90;;;;;;;22.28;46.07;101629.94;5013830;28;20057;-73
2022/09/22 04:16:12;;;;;;;2.20;1.73;;;;;;;22.29;46.07;101632.53;5014719;28;20046;-73
2022/09/22 04:18:40;;;;;;;2.60;1.60;;;;;;;22.27;46.00;101637.19;5014055;28;20046;-71
2022/09/22 04:21:07;;;;;;;2.85;1.58;;;;;;;22.28;46.24;101635.34;5014216;28;20054;-74
2022/09/22 04:23:35;;;;;;;2.78;1.83;;;;;;;22.29;46.31;101639.78;5014116;28;20045;-76
2022/09/22 04:26:04;;;;;;;5.32;1.90;;;;;;;22.29;46.42;101643.31;5014126;28;20050;-76
2022/09/22 04:28:32;;;;;;;4.95;2.08;;;;;;;22.28;46.38;101638.91;5014104;28;20045;-76
2022/09/22 04:30:59;;;;;;;3.00;1.92;;;;;;;22.28;46.39;101646.13;5014240;28;20049;-75
2022/09/22 04:33:26;;;;;;;2.60;1.98;;;;;;;22.27;46.41;101631.78;5013450;28;20062;-75
2022/09/22 04:35:54;;;;;;;4.60;1.73;;;;;;;22.27;46.47;101634.50;5014226;28;20049;-75
2022/09/22 04:38:21;;;;;;;3.58;1.73;;;;;;;22.28;46.46;101640.72;5013422;28;20042;-77
2022/09/22 04:40:51;;;;;;;3.03;2.15;;;;;;;22.27;46.41;101639.88;5014011;28;20053;-75
2022/09/22 04:43:19;;;;;;;4.18;1.95;;;;;;;22.28;46.56;101635.34;5013883;28;20049;-75
2022/09/22 04:45:47;;;;;;;4.95;2.20;;;;;;;22.26;46.50;101640.03;5013973;28;20042;-75
2022/09/22 04:48:15;;;;;;;2.78;1.80;;;;;;;22.28;46.58;101640.72;5014083;28;20042;-75
2022/09/22 04:50:43;;;;;;;2.75;1.85;;;;;;;22.26;46.62;101638.19;5014069;28;20495;-75
2022/09/22 04:53:14;;;;;;;2.78;1.70;;;;;;;22.26;46.46;101648.13;5013856;28;20049;-75
2022/09/22 04:55:41;;;;;;;3.45;1.83;;;;;;;22.26;46.48;101642.72;5014211;28;20042;-75
2022/09/22 04:58:09;;;;;;;2.35;1.80;;;;;;;22.25;46.29;101641.03;5012988;28;20042;-75
2022/09/22 05:00:36;;;;;;;5.70;1.80;;;;;;;22.25;46.52;101647.28;5012705;28;20112;-75
2022/09/22 05:03:11;;;;;;;3.90;1.73;;;;;;;22.24;46.36;101648.25;5013246;28;20042;-76
2022/09/22 05:05:39;;;;;;;3.00;2.28;;;;;;;22.24;46.28;101652.78;5013494;28;20037;-75
2022/09/22 05:08:06;;;;;;;4.38;2.08;;;;;;;22.24;46.37;101650.97;5012923;28;20069;-76
2022/09/22 05:10:34;;;;;;;3.25;1.83;;;;;;;22.24;46.20;101666.25;5013890;28;20053;-76
2022/09/22 05:13:02;;;;;;;5.03;2.10;;;;;;;22.23;46.30;101657.31;5013605;28;20057;-76
2022/09/22 05:15:31;;;;;;;4.82;2.03;;;;;;;22.21;46.54;101646.66;5012426;28;20050;-76
2022/09/22 05:17:59;;;;;;;4.55;2.00;;;;;;;22.22;46.63;101644.81;5013417;28;20042;-76
2022/09/22 05:20:26;;;;;;;2.42;1.70;;;;;;;22.23;46.28;101648.38;5011521;28;20049;-76
2022/09/22 05:22:53;;;;;;;3.38;2.13;;;;;;;22.23;46.40;101648.38;5012867;28;20046;-76
2022/09/22 05:25:21;;;;;;;3.15;1.85;;;;;;;22.23;46.48;101648.38;5013303;28;20057;-75
2022/09/22 05:27:50;;;;;;;4.18;1.95;;;;;;;22.21;46.26;101641.28;5011644;28;20050;-76
2022/09/22 05:30:19;;;;;;;3.00;2.00;;;;;;;22.21;46.35;101643.13;5013675;28;20379;-76
2022/09/22 05:32:47;;;;;;;3.88;2.17;;;;;;;22.21;46.38;101646.66;5013339;28;20073;-75
2022/09/22 05:35:19;;;;;;;4.95;2.20;;;;;;;22.21;46.19;101643.97;5012513;28;20062;-75
2022/09/22 05:37:48;;;;;;;3.63;2.00;;;;;;;22.20;46.46;101642.28;5013549;28;20042;-75
2022/09/22 05:40:16;;;;;;;3.30;1.92;;;;;;;22.20;46.21;101639.56;5012465;28;20049;-75
2022/09/22 05:42:48;;;;;;;2.97;1.70;;;;;;;22.19;46.42;101637.84;5012655;28;20046;-74
2022/09/22 05:45:17;;;;;;;6.65;1.98;;;;;;;22.18;46.53;101636.13;5013081;28;20061;-75
2022/09/22 05:47:44;;;;;;;2.88;1.90;;;;;;;22.20;46.38;101641.38;5012892;28;20401;-75
2022/09/22 05:50:13;;;;;;;2.53;1.90;;;;;;;22.19;46.38;101637.84;5012694;28;20409;-75
2022/09/22 05:52:40;;;;;;;2.83;2.00;;;;;;;22.19;46.37;101642.38;5012745;28;20056;-75
2022/09/22 05:55:09;;;;;;;2.95;2.17;;;;;;;22.18;46.27;101641.53;5012245;28;20053;-74
2022/09/22 05:57:36;;;;;;;2.78;2.10;;;;;;;22.19;46.22;101643.22;5012428;28;20053;-75
2022/09/22 06:00:06;;;;;;;3.92;1.80;;;;;;;22.19;46.33;101648.63;5012641;28;20049;-75
2022/09/22 06:02:42;;;;;;;2.47;1.92;;;;;;;22.17;46.06;101638.97;5012989;28;20041;-75
2022/09/22 06:05:10;;;;;;;2.72;1.95;;;;;;;22.18;46.08;101646.94;5012497;28;20045;-75
2022/09/22 06:07:37;;;;;;;2.92;1.98;;;;;;;22.18;46.07;101649.63;5012696;28;20053;-75
2022/09/22 06:10:05;;;;;;;3.72;1.80;;;;;;;22.18;45.83;101649.63;5012405;28;20493;-75
2022/09/22 06:12:33;;;;;;;3.97;2.35;;;;;;;22.19;45.95;101645.06;5012394;28;20053;-75
2022/09/22 06:15:00;;;;;;;6.05;1.90;;;;;;;22.19;45.77;101651.31;5012040;28;20401;-75
2022/09/22 06:17:27;;;;;;;4.03;2.05;;;;;;;22.19;45.71;101645.94;5012823;28;20385;-75
2022/09/22 06:19:54;;;;;;;2.85;2.20;;;;;;;22.19;45.65;101643.22;5011663;28;20053;-75
2022/09/22 06:22:23;;;;;;;4.18;2.30;;;;;;;22.19;45.85;101651.31;5011409;28;20053;-75
2022/09/22 06:24:50;;;;;;;4.35;1.92;;;;;;;22.20;45.67;101649.47;5011979;28;20504;-75
2022/09/22 06:27:17;;;;;;;4.15;1.95;;;;;;;22.20;45.59;101652.19;5012215;28;20105;-75
2022/09/22 06:29:44;;;;;;;3.75;2.00;;;;;;;22.20;45.47;101642.28;5011693;28;20517;-75
2022/09/22 06:32:12;;;;;;;2.70;2.10;;;;;;;22.20;45.42;101650.38;5011347;28;20057;-75
2022/09/22 06:34:39;;;;;;;3.03;1.80;;;;;;;22.20;45.61;101646.78;5011476;28;20077;-76
2022/09/22 06:37:08;;;;;;;4.30;2.88;;;;;;;22.20;43.59;101661.16;5012294;28;20053;-75
2022/09/22 06:39:36;;;;;;;3.38;2.22;;;;;;;22.16;42.65;101664.22;5011167;28;20057;-75
2022/09/22 06:42:04;;;;;;;3.80;2.78;;;;;;;22.12;42.14;101657.34;5011753;28;20056;-75
2022/09/22 06:44:32;;;;;;;4.28;2.33;;;;;;;22.10;42.22;101668.25;5011417;28;20042;-75
2022/09/22 06:47:04;;;;;;;4.30;2.97;;;;;;;22.08;42.09;101661.28;5011371;28;20070;-75
2022/09/22 06:49:31;;;;;;;3.58;2.72;;;;;;;22.05;42.23;101669.66;5009503;28;20107;-75
2022/09/22 06:51:58;;;;;;;4.38;2.53;;;;;;;22.05;42.35;101673.19;5066980;28;20048;-76
2022/09/22 06:54:26;;;;;;;4.55;2.72;;;;;;;22.05;41.98;101666.94;5114329;28;20047;-76
2022/09/22 06:56:54;;;;;;;4.95;2.63;;;;;;;22.04;42.25;101668.78;5114027;28;20380;-76
2022/09/22 06:59:21;;;;;;;5.22;2.03;;;;;;;22.03;42.59;101656.28;5110395;28;20051;-77
2022/09/22 07:01:49;;;;;;;8.73;2.88;;;;;;;22.03;42.34;101656.28;5114972;28;20055;-76
2022/09/22 07:04:16;;;;;;;7.43;2.45;;;;;;;22.05;42.23;101661.56;5114897;28;20043;-77
2022/09/22 07:06:44;;;;;;;4.13;2.33;;;;;;;22.05;41.86;101654.31;5115304;28;20040;-79
2022/09/22 07:09:11;;;;;;;6.22;2.55;;;;;;;22.07;42.11;101657.72;5115133;28;20051;-77
2022/09/22 07:11:41;;;;;;;3.60;2.28;;;;;;;22.09;41.82;101660.31;5115334;28;20044;-76
2022/09/22 07:14:11;;;;;;;4.20;2.20;;;;;;;22.08;41.69;101667.56;5058563;28;20050;-75
2022/09/22 07:16:39;;;;;;;3.72;2.15;;;;;;;22.08;42.05;101661.28;5010621;28;20050;-78
2022/09/22 07:19:07;;;;;;;4.55;2.13;;;;;;;22.10;41.79;101656.63;5010498;28;20050;-77
2022/09/22 07:21:36;;;;;;;6.03;1.85;;;;;;;22.12;42.12;101660.03;5013618;28;20046;-77
2022/09/22 07:24:07;;;;;;;3.88;1.85;;;;;;;22.13;42.24;101659.94;5013919;28;20050;-76
2022/09/22 07:26:38;;;;;;;2.75;2.00;;;;;;;22.15;42.31;101667.91;5015273;28;20042;-75
2022/09/22 07:29:07;;;;;;;4.13;2.15;;;;;;;22.15;42.21;101670.59;5083756;28;20387;-77
2022/09/22 07:31:35;;;;;;;3.78;2.03;;;;;;;22.14;42.27;101669.75;5117714;28;20043;-76
2022/09/22 07:34:03;;;;;;;3.30;2.00;;;;;;;22.15;42.23;101681.38;5117860;28;20406;-76
2022/09/22 07:36:32;;;;;;;4.85;2.08;;;;;;;22.16;42.01;101675.00;5117906;28;20044;-75
2022/09/22 07:39:09;;;;;;;4.55;2.40;;;;;;;22.16;42.03;101683.09;5118089;28;20051;-74
2022/09/22 07:41:42;;;;;;;3.95;2.03;;;;;;;22.16;42.13;101686.66;5117995;28;20048;-74
2022/09/22 07:46:59;;;;;;;3.65;1.90;;;;;;;22.20;42.61;101680.03;5117359;28;20479;-74
2022/09/22 07:49:27;;;;;;;4.72;2.13;;;;;;;22.21;42.78;101680.88;5118704;28;20050;-73
2022/09/22 07:51:56;;;;;;;3.58;1.83;;;;;;;22.24;43.61;101677.06;5117625;28;20039;-73
2022/09/22 07:54:25;;;;;;;3.10;1.60;;;;;;;22.26;42.72;101680.50;5118809;28;20047;-75
2022/09/22 07:57:01;;;;;;;4.10;1.77;;;;;;;22.27;42.76;101683.03;5118086;28;20047;-73
2022/09/22 07:59:28;;;;;;;4.38;1.98;;;;;;;22.27;42.48;101671.41;5119035;28;20047;-74
2022/09/22 08:01:55;;;;;;;2.75;1.90;;;;;;;22.27;42.31;101664.16;5118563;28;20367;-74
2022/09/22 08:04:23;;;;;;;5.25;2.08;;;;;;;22.29;42.18;101667.59;5117734;28;20048;-74
2022/09/22 08:06:54;;;;;;;4.20;1.80;;;;;;;22.30;42.43;101671.16;5117438;28;20058;-74
2022/09/22 08:09:23;;;;;;;2.95;2.28;;;;;;;22.32;42.45;101669.16;5067529;28;20049;-75
2022/09/22 08:11:51;;;;;;;4.78;2.55;;;;;;;22.35;43.05;101669.75;5015621;28;20054;-73
2022/09/22 08:14:22;;;;;;;4.95;1.83;;;;;;;22.35;42.77;101669.75;5014850;28;20057;-74
2022/09/22 08:16:52;;;;;;;3.08;1.75;;;;;;;22.36;43.02;101665.22;5046302;28;20050;-75
2022/09/22 08:19:22;;;;;;;2.95;1.58;;;;;;;22.38;42.93;101663.25;5013261;28;20498;-73
2022/09/22 08:21:52;;;;;;;2.92;1.63;;;;;;;22.37;43.22;101659.69;5015065;28;20068;-75
2022/09/22 08:24:21;;;;;;;2.90;1.42;;;;;;;22.38;42.98;101666.81;5015436;28;20050;-73
2022/09/22 08:26:51;;;;;;;3.40;1.98;;;;;;;22.39;43.09;101667.66;5013044;28;20053;-73
2022/09/22 08:29:19;;;;;;;3.38;1.65;;;;;;;22.39;40.93;101671.19;5014296;28;20413;-73
2022/09/22 08:31:47;;;;;;;2.92;1.42;;;;;;;22.40;40.73;101672.06;5013585;28;20053;-73
2022/09/22 08:34:16;;;;;;;2.50;1.40;;;;;;;22.39;41.04;101671.19;5014830;28;20496;-75
2022/09/22 08:36:47;;;;;;;3.58;1.58;;;;;;;22.40;42.10;101672.06;5035332;28;20492;-76
2022/09/22 08:39:18;;;;;;;2.85;2.30;;;;;;;22.41;42.12;101674.63;5034477;28;20053;-74
2022/09/22 08:42:12;;;;;;;2.38;1.80;;;;;;;22.42;41.29;101664.69;5034789;28;20046;-75
2022/09/22 08:45:27;;;;;;;3.78;1.50;;;;;;;22.41;41.00;101666.53;5034394;28;20164;-74
2022/09/22 08:53:46;;;;;;;2.42;1.60;;;;;;;22.45;41.44;101678.78;5075594;28;20057;-76
2022/09/22 08:56:56;;;;;;;2.20;1.60;;;;;;;22.44;40.85;101665.41;5075602;28;20048;-75
2022/09/22 08:59:47;;;;;;;3.00;1.70;;;;;;;22.45;40.97;101675.22;5008397;28;20059;-74
2022/09/22 09:02:18;;;;;;;2.13;1.55;;;;;;;22.45;40.90;101669.84;4899746;29;20064;-74
2022/09/22 09:05:07;;;;;;;3.55;2.13;;;;;;;22.46;40.99;101671.53;4900494;29;20065;-75
2022/09/22 09:07:51;;;;;;;2.75;1.75;;;;;;;22.45;40.51;101675.22;4900322;29;20513;-75
2022/09/22 09:10:44;;;;;;;3.13;1.65;;;;;;;22.45;41.39;101670.69;4901014;29;20073;-78
2022/09/22 09:13:33;;;;;;;5.70;1.42;;;;;;;22.46;41.45;101668.84;4900475;29;20052;-76
2022/09/22 09:16:13;;;;;;;2.38;1.75;;;;;;;22.46;42.05;101666.16;4900227;29;20068;-75
2022/09/22 09:18:47;;;;;;;6.20;2.35;;;;;;;22.46;42.04;101668.84;4925330;29;20060;-77
2022/09/22 09:21:15;;;;;;;2.80;1.45;;;;;;;22.46;41.10;101661.59;4956913;29;20062;-77
2022/09/22 09:23:53;;;;;;;3.95;1.65;;;;;;;22.46;41.36;101660.75;4940749;29;20059;-76
2022/09/22 09:26:41;;;;;;;4.35;2.00;;;;;;;22.45;41.60;101661.75;4956497;29;20178;-76
2022/09/22 09:29:17;;;;;;;4.07;1.90;;;;;;;22.44;41.95;101663.59;4956530;29;20148;-77
2022/09/22 09:31:52;;;;;;;4.53;1.83;;;;;;;22.44;40.52;101660.88;4956499;29;20074;-77
2022/09/22 09:34:24;;;;;;;2.78;1.50;;;;;;;22.44;41.20;101663.59;4956129;29;20067;-77
2022/09/22 09:37:06;;;;;;;2.28;1.77;;;;;;;22.44;41.48;101658.19;4991288;28;20073;-76
2022/09/22 09:39:40;;;;;;;3.22;1.85;;;;;;;22.45;41.76;101657.19;4995068;28;20069;-77
2022/09/22 09:42:21;;;;;;;4.30;1.60;;;;;;;22.46;41.25;101653.50;4993816;28;20054;-77
2022/09/22 09:44:52;;;;;;;6.28;1.80;;;;;;;22.46;39.71;101655.34;4994044;28;20050;-76
2022/09/22 09:47:35;;;;;;;3.42;1.70;;;;;;;22.46;41.67;101653.50;4993997;28;20038;-76
2022/09/22 09:50:03;;;;;;;2.50;1.95;;;;;;;22.46;40.47;101652.66;4994088;28;20053;-77
2022/09/22 09:52:35;;;;;;;2.85;1.70;;;;;;;22.46;41.59;101652.66;4994281;28;20125;-77
2022/09/22 09:55:24;;;;;;;2.47;1.52;;;;;;;22.46;41.88;101653.50;5006459;28;20055;-76
2022/09/22 09:58:02;;;;;;;2.85;1.55;;;;;;;22.46;41.05;101650.81;5013545;28;20413;-76
2022/09/22 10:00:33;;;;;;;3.33;1.90;;;;;;;22.45;40.33;101649.09;5013349;28;20048;-76
2022/09/22 10:03:18;;;;;;;3.13;1.77;;;;;;;22.47;40.48;101646.25;5013606;28;20053;-77
2022/09/22 10:05:57;;;;;;;2.83;1.60;;;;;;;22.46;40.43;101639.16;5013800;28;20401;-78
2022/09/22 10:08:26;;;;;;;3.15;1.67;;;;;;;22.46;40.44;101636.47;5013120;28;20046;-76
2022/09/22 10:10:57;;;;;;;2.30;1.60;;;;;;;22.45;39.66;101632.91;5012956;28;20061;-76
2022/09/22 10:13:27;;;;;;;2.33;1.42;;;;;;;22.47;39.79;101643.56;5014239;28;20049;-77
2022/09/22 10:16:09;;;;;;;2.40;1.40;;;;;;;22.46;40.45;101634.63;5013701;28;20046;-77
2022/09/22 10:18:39;;;;;;;2.78;1.60;;;;;;;22.46;39.32;101645.41;5013538;28;20050;-77
2022/09/22 10:21:15;;;;;;;2.13;1.67;;;;;;;22.46;39.49;101637.31;5012901;28;20041;-77
2022/09/22 10:23:45;;;;;;;1.83;1.40;;;;;;;22.45;39.68;101630.22;5011975;28;20053;-77
2022/09/22 10:26:20;;;;;;;2.65;1.50;;;;;;;22.45;38.53;101627.53;5012916;28;20049;-77
2022/09/22 10:29:19;;;;;;;2.00;1.60;;;;;;;22.46;39.69;101637.31;5013118;28;20049;-76
2022/09/22 10:32:14;;;;;;;1.90;1.40;;;;;;;22.46;40.09;101629.22;5013666;28;20374;-76
2022/09/22 10:34:43;;;;;;;2.40;1.60;;;;;;;22.46;40.74;101622.97;5053974;28;20057;-77
2022/09/22 10:37:19;;;;;;;1.85;1.58;;;;;;;22.46;40.89;101625.66;5053665;28;20056;-79
2022/09/22 10:39:51;;;;;;;1.95;1.38;;;;;;;22.46;40.69;101620.28;5020267;28;20057;-79
2022/09/22 10:42:27;;;;;;;2.23;1.40;;;;;;;22.46;39.14;101618.44;5053534;28;20053;-79
2022/09/22 10:45:00;;;;;;;1.95;1.35;;;;;;;22.45;39.47;101607.78;5053122;28;20060;-79
2022/09/22 10:47:53;;;;;;;2.17;1.85;;;;;;;22.44;39.76;101612.31;5053764;28;20095;-78
2022/09/22 10:50:40;;;;;;;3.13;1.90;;;;;;;22.45;38.85;101610.47;5053168;28;20516;-79
2022/09/22 10:53:28;;;;;;;2.95;1.63;;;;;;;22.45;38.33;101608.63;5051379;28;20061;-78
2022/09/22 10:56:04;;;;;;;2.00;1.50;;;;;;;22.44;38.63;101603.34;5050453;28;20045;-79
2022/09/22 10:58:49;;;;;;;2.72;1.50;;;;;;;22.34;37.75;101607.84;5052977;28;20152;-79
2022/09/22 11:01:32;;;;;;;3.33;1.50;;;;;;;22.37;38.51;101605.75;5053321;28;20086;-79
2022/09/22 11:04:19;;;;;;;6.03;1.60;;;;;;;22.38;38.85;101614.69;5052462;28;20060;-73
2022/09/22 11:12:58;;;;;;;3.35;1.85;;;;;;;22.33;37.70;101609.69;4956375;28;19929;-74
2022/09/22 11:15:52;;;;;;;1.95;1.50;;;;;;;22.35;38.22;101604.16;4971535;28;20054;-74
2022/09/22 11:18:26;;;;;;;8.32;1.75;;;;;;;22.36;38.75;101595.06;4971555;28;20059;-75
2022/09/22 11:21:16;;;;;;;9.70;1.73;;;;;;;22.36;39.16;101595.94;4971116;28;20058;-74
2022/09/22 11:24:02;;;;;;;3.55;1.55;;;;;;;22.36;38.29;101598.66;4971302;28;20383;-74
2022/09/22 11:26:46;;;;;;;1.92;1.70;;;;;;;22.36;37.81;101595.06;4971455;28;20051;-74
2022/09/22 11:29:51;;;;;;;2.38;1.60;;;;;;;22.36;38.11;101595.94;4971263;28;20051;-74
2022/09/22 11:32:55;;;;;;;3.38;1.60;;;;;;;22.37;37.92;101594.09;4971505;28;20063;-74
2022/09/22 11:35:31;;;;;;;3.05;1.30;;;;;;;22.37;38.16;101578.78;4970503;28;20446;-73
2022/09/22 11:38:13;;;;;;;2.25;1.20;;;;;;;22.37;38.06;101577.91;4970964;28;20465;-74
2022/09/22 11:40:40;;;;;;;2.30;1.60;;;;;;;22.36;37.96;101574.38;4970812;28;20051;-74
2022/09/22 11:43:45;;;;;;;2.28;1.65;;;;;;;22.37;38.08;101573.38;4976278;28;20054;-74
2022/09/22 11:46:46;;;;;;;3.22;1.60;;;;;;;22.36;38.32;101571.66;5011724;28;20046;-74
2022/09/22 11:49:25;;;;;;;3.42;1.50;;;;;;;22.36;38.37;101560.88;5012259;28;20481;-74
2022/09/22 11:52:16;;;;;;;2.47;1.75;;;;;;;22.34;38.37;101564.69;5011863;28;20053;-74
2022/09/22 11:54:48;;;;;;;4.80;1.75;;;;;;;22.34;38.63;101556.59;5010470;28;20053;-75
2022/09/22 11:57:23;;;;;;;3.17;1.70;;;;;;;22.33;38.59;101554.91;5011857;28;20401;-76
2022/09/22 11:59:56;;;;;;;3.85;1.73;;;;;;;22.33;38.30;101553.06;5011377;28;20046;-77
2022/09/22 12:02:44;;;;;;;2.65;1.63;;;;;;;22.35;39.31;101548.34;4992509;28;20054;-77
2022/09/22 12:05:18;;;;;;;4.15;1.60;;;;;;;22.34;38.81;101538.56;4993101;28;20417;-76
2022/09/22 12:08:13;;;;;;;2.10;1.67;;;;;;;22.34;38.94;101543.09;4994866;28;20051;-76
2022/09/22 12:10:46;;;;;;;2.88;1.90;;;;;;;22.34;38.66;101537.72;4995289;28;20520;-76